sensor_id;sensor_type;location;lat;lon;timestamp;pressure;altitude;pressure_sealevel;temperature;humidity
9839;BME280;4958;48.150;11.506;2022-10-04T00:01:05;96362.97;;;10.24;78.01
9839;BME280;4958;48.150;11.506;2022-10-04T00:03:38;96369.13;;;10.31;78.04
9839;BME280;4958;48.150;11.506;2022-10-04T00:06:13;96360.75;;;10.29;78.56
9839;BME280;4958;48.150;11.506;2022-10-04T00:08:43;96360.44;;;10.32;78.95
9839;BME280;4958;48.150;11.506;2022-10-04T00:11:16;96357.25;;;10.38;79.16
9839;BME280;4958;48.150;11.506;2022-10-04T00:13:48;96353.88;;;10.38;78.46
9839;BME280;4958;48.150;11.506;2022-10-04T00:16:26;96354.34;;;10.42;78.77
9839;BME280;4958;48.150;11.506;2022-10-04T00:19:23;96350.53;;;10.54;78.06
9839;BME280;4958;48.150;11.506;2022-10-04T00:22:15;96346.03;;;10.64;77.63
9839;BME280;4958;48.150;11.506;2022-10-04T00:25:17;96344.59;;;10.61;78.23
9839;BME280;4958;48.150;11.506;2022-10-04T00:31:13;96339.81;;;10.75;78.15
9839;BME280;4958;48.150;11.506;2022-10-04T00:33:40;96337.38;;;10.81;77.88
9839;BME280;4958;48.150;11.506;2022-10-04T00:39:24;96349.63;;;10.87;77.88
9839;BME280;4958;48.150;11.506;2022-10-04T00:41:56;96333.53;;;10.85;77.19
9839;BME280;4958;48.150;11.506;2022-10-04T00:44:28;96342.03;;;10.69;77.65
9839;BME280;4958;48.150;11.506;2022-10-04T00:46:59;96333.03;;;10.73;77.74
9839;BME280;4958;48.150;11.506;2022-10-04T00:49:31;96334.66;;;10.75;77.49
9839;BME280;4958;48.150;11.506;2022-10-04T00:52:01;96325.00;;;10.77;77.47
9839;BME280;4958;48.150;11.506;2022-10-04T00:54:32;96325.63;;;10.79;77.62
9839;BME280;4958;48.150;11.506;2022-10-04T00:57:02;96326.91;;;10.83;77.33
9839;BME280;4958;48.150;11.506;2022-10-04T00:59:34;96324.19;;;10.76;77.18
9839;BME280;4958;48.150;11.506;2022-10-04T01:02:05;96325.44;;;10.64;77.17
9839;BME280;4958;48.150;11.506;2022-10-04T01:04:39;96323.34;;;10.59;76.76
9839;BME280;4958;48.150;11.506;2022-10-04T01:07:08;96331.72;;;10.53;77.37
9839;BME280;4958;48.150;11.506;2022-10-04T01:09:43;96320.94;;;10.58;76.92
9839;BME280;4958;48.150;11.506;2022-10-04T01:12:21;96311.75;;;10.47;76.82
9839;BME280;4958;48.150;11.506;2022-10-04T01:14:55;96311.75;;;10.39;76.79
9839;BME280;4958;48.150;11.506;2022-10-04T01:17:26;96311.66;;;10.23;77.48
9839;BME280;4958;48.150;11.506;2022-10-04T01:19:53;96315.38;;;10.28;77.81
9839;BME280;4958;48.150;11.506;2022-10-04T01:22:33;96312.78;;;10.20;77.66
9839;BME280;4958;48.150;11.506;2022-10-04T01:25:00;96307.13;;;10.17;77.83
9839;BME280;4958;48.150;11.506;2022-10-04T01:27:33;96305.47;;;10.08;78.01
9839;BME280;4958;48.150;11.506;2022-10-04T01:30:02;96301.78;;;10.10;77.94
9839;BME280;4958;48.150;11.506;2022-10-04T01:32:30;96306.47;;;10.15;78.32
9839;BME280;4958;48.150;11.506;2022-10-04T01:34:57;96308.91;;;10.16;77.94
9839;BME280;4958;48.150;11.506;2022-10-04T01:37:23;96311.94;;;10.12;77.80
9839;BME280;4958;48.150;11.506;2022-10-04T01:39:51;96301.28;;;10.07;77.05
9839;BME280;4958;48.150;11.506;2022-10-04T01:42:20;96297.75;;;10.08;76.64
9839;BME280;4958;48.150;11.506;2022-10-04T01:44:51;96294.53;;;10.05;76.89
9839;BME280;4958;48.150;11.506;2022-10-04T01:47:23;96292.97;;;10.13;77.14
9839;BME280;4958;48.150;11.506;2022-10-04T01:49:52;96299.53;;;10.07;76.46
9839;BME280;4958;48.150;11.506;2022-10-04T01:52:26;96292.25;;;10.02;76.74
9839;BME280;4958;48.150;11.506;2022-10-04T01:55:01;96288.72;;;9.95;76.28
9839;BME280;4958;48.150;11.506;2022-10-04T01:57:33;96277.72;;;9.85;77.44
9839;BME280;4958;48.150;11.506;2022-10-04T02:00:04;96269.72;;;9.88;77.35
9839;BME280;4958;48.150;11.506;2022-10-04T02:02:34;96274.69;;;9.90;77.12
9839;BME280;4958;48.150;11.506;2022-10-04T02:05:04;96268.75;;;9.89;77.35
9839;BME280;4958;48.150;11.506;2022-10-04T02:07:32;96260.06;;;9.90;77.50
9839;BME280;4958;48.150;11.506;2022-10-04T02:10:05;96262.34;;;9.93;77.02
9839;BME280;4958;48.150;11.506;2022-10-04T02:12:32;96259.88;;;9.84;76.76
9839;BME280;4958;48.150;11.506;2022-10-04T02:15:02;96262.13;;;9.79;77.37
9839;BME280;4958;48.150;11.506;2022-10-04T02:17:32;96274.34;;;9.85;77.08
9839;BME280;4958;48.150;11.506;2022-10-04T02:20:08;96271.31;;;9.89;76.54
9839;BME280;4958;48.150;11.506;2022-10-04T02:22:37;96260.84;;;9.83;76.56
9839;BME280;4958;48.150;11.506;2022-10-04T02:25:06;96262.81;;;9.89;76.57
9839;BME280;4958;48.150;11.506;2022-10-04T02:27:33;96255.09;;;9.89;76.57
9839;BME280;4958;48.150;11.506;2022-10-04T02:30:01;96246.88;;;9.85;76.00
9839;BME280;4958;48.150;11.506;2022-10-04T02:32:30;96252.16;;;9.84;76.19
9839;BME280;4958;48.150;11.506;2022-10-04T02:35:14;96257.75;;;9.71;76.61
9839;BME280;4958;48.150;11.506;2022-10-04T02:37:41;96267.22;;;9.70;76.93
9839;BME280;4958;48.150;11.506;2022-10-04T02:40:12;96269.34;;;9.75;76.83
9839;BME280;4958;48.150;11.506;2022-10-04T02:42:44;96273.88;;;9.81;76.27
9839;BME280;4958;48.150;11.506;2022-10-04T02:45:17;96264.06;;;9.77;75.74
9839;BME280;4958;48.150;11.506;2022-10-04T02:47:46;96260.94;;;9.65;76.02
9839;BME280;4958;48.150;11.506;2022-10-04T02:50:23;96268.78;;;9.55;76.21
9839;BME280;4958;48.150;11.506;2022-10-04T02:52:54;96274.00;;;9.46;77.20
9839;BME280;4958;48.150;11.506;2022-10-04T02:55:26;96263.41;;;9.49;77.26
9839;BME280;4958;48.150;11.506;2022-10-04T02:57:54;96265.41;;;9.55;77.34
9839;BME280;4958;48.150;11.506;2022-10-04T03:00:23;96262.59;;;9.40;76.52
9839;BME280;4958;48.150;11.506;2022-10-04T03:03:12;96253.91;;;9.15;77.56
9839;BME280;4958;48.150;11.506;2022-10-04T03:05:42;96247.84;;;9.24;77.36
9839;BME280;4958;48.150;11.506;2022-10-04T03:08:10;96255.41;;;9.26;77.45
9839;BME280;4958;48.150;11.506;2022-10-04T03:10:41;96252.56;;;9.29;77.44
9839;BME280;4958;48.150;11.506;2022-10-04T03:13:08;96249.31;;;9.27;77.45
9839;BME280;4958;48.150;11.506;2022-10-04T03:15:35;96259.16;;;9.31;77.49
9839;BME280;4958;48.150;11.506;2022-10-04T03:18:02;96260.16;;;9.39;77.19
9839;BME280;4958;48.150;11.506;2022-10-04T03:20:29;96255.34;;;9.44;76.80
9839;BME280;4958;48.150;11.506;2022-10-04T03:22:56;96250.88;;;9.46;76.98
9839;BME280;4958;48.150;11.506;2022-10-04T03:25:27;96249.75;;;9.48;76.67
9839;BME280;4958;48.150;11.506;2022-10-04T03:27:58;96246.53;;;9.46;76.07
9839;BME280;4958;48.150;11.506;2022-10-04T03:30:26;96253.28;;;9.47;76.07
9839;BME280;4958;48.150;11.506;2022-10-04T03:32:53;96251.81;;;9.37;75.96
9839;BME280;4958;48.150;11.506;2022-10-04T03:35:26;96246.00;;;9.34;76.60
9839;BME280;4958;48.150;11.506;2022-10-04T03:37:54;96253.06;;;9.32;77.03
9839;BME280;4958;48.150;11.506;2022-10-04T03:40:23;96251.59;;;9.30;76.65
9839;BME280;4958;48.150;11.506;2022-10-04T03:42:51;96255.34;;;9.35;76.96
9839;BME280;4958;48.150;11.506;2022-10-04T03:45:22;96251.28;;;9.33;76.81
9839;BME280;4958;48.150;11.506;2022-10-04T03:47:49;96249.88;;;9.39;76.02
9839;BME280;4958;48.150;11.506;2022-10-04T03:50:21;96245.25;;;9.16;76.59
9839;BME280;4958;48.150;11.506;2022-10-04T03:52:51;96252.97;;;9.16;77.87
9839;BME280;4958;48.150;11.506;2022-10-04T03:55:23;96262.94;;;9.19;77.47
9839;BME280;4958;48.150;11.506;2022-10-04T03:57:51;96260.72;;;9.24;77.76
9839;BME280;4958;48.150;11.506;2022-10-04T04:00:19;96258.72;;;9.36;76.80
9839;BME280;4958;48.150;11.506;2022-10-04T04:02:49;96257.94;;;9.44;76.50
9839;BME280;4958;48.150;11.506;2022-10-04T04:05:20;96261.63;;;9.41;76.20
9839;BME280;4958;48.150;11.506;2022-10-04T04:07:58;96258.03;;;9.34;76.60
9839;BME280;4958;48.150;11.506;2022-10-04T04:10:28;96254.97;;;9.30;76.43
9839;BME280;4958;48.150;11.506;2022-10-04T04:12:59;96252.41;;;9.30;76.34
9839;BME280;4958;48.150;11.506;2022-10-04T04:15:31;96246.56;;;9.20;75.93
9839;BME280;4958;48.150;11.506;2022-10-04T04:18:00;96242.53;;;9.18;76.23
9839;BME280;4958;48.150;11.506;2022-10-04T04:20:30;96245.19;;;9.08;76.62
9839;BME280;4958;48.150;11.506;2022-10-04T04:23:01;96238.00;;;9.12;76.42
9839;BME280;4958;48.150;11.506;2022-10-04T04:25:32;96249.38;;;9.09;76.50
9839;BME280;4958;48.150;11.506;2022-10-04T04:28:04;96247.91;;;9.07;76.61
9839;BME280;4958;48.150;11.506;2022-10-04T04:30:36;96257.09;;;9.09;76.86
9839;BME280;4958;48.150;11.506;2022-10-04T04:33:10;96255.63;;;9.07;76.41
9839;BME280;4958;48.150;11.506;2022-10-04T04:35:40;96257.19;;;8.99;76.64
9839;BME280;4958;48.150;11.506;2022-10-04T04:38:20;96258.81;;;9.00;76.84
9839;BME280;4958;48.150;11.506;2022-10-04T04:40:47;96261.31;;;8.92;76.55
9839;BME280;4958;48.150;11.506;2022-10-04T04:43:16;96264.31;;;8.88;77.05
9839;BME280;4958;48.150;11.506;2022-10-04T04:45:47;96258.50;;;8.86;77.34
9839;BME280;4958;48.150;11.506;2022-10-04T04:48:16;96254.84;;;8.88;77.21
9839;BME280;4958;48.150;11.506;2022-10-04T04:50:47;96251.44;;;8.80;76.82
9839;BME280;4958;48.150;11.506;2022-10-04T04:53:16;96257.38;;;8.80;77.50
9839;BME280;4958;48.150;11.506;2022-10-04T04:55:46;96252.53;;;8.77;77.46
9839;BME280;4958;48.150;11.506;2022-10-04T04:58:17;96251.44;;;8.62;77.83
9839;BME280;4958;48.150;11.506;2022-10-04T05:00:53;96257.09;;;8.65;77.99
9839;BME280;4958;48.150;11.506;2022-10-04T05:03:20;96252.81;;;8.74;77.95
9839;BME280;4958;48.150;11.506;2022-10-04T05:05:47;96253.63;;;8.75;78.26
9839;BME280;4958;48.150;11.506;2022-10-04T05:08:18;96250.00;;;8.85;77.90
9839;BME280;4958;48.150;11.506;2022-10-04T05:10:48;96247.94;;;8.89;77.61
9839;BME280;4958;48.150;11.506;2022-10-04T05:13:20;96247.94;;;8.89;77.36
9839;BME280;4958;48.150;11.506;2022-10-04T05:15:52;96258.28;;;8.97;77.07
9839;BME280;4958;48.150;11.506;2022-10-04T05:18:27;96267.66;;;8.80;77.24
9839;BME280;4958;48.150;11.506;2022-10-04T05:20:58;96259.00;;;8.81;77.34
9839;BME280;4958;48.150;11.506;2022-10-04T05:23:28;96257.53;;;8.79;77.33
9839;BME280;4958;48.150;11.506;2022-10-04T05:25:54;96253.72;;;8.83;77.65
9839;BME280;4958;48.150;11.506;2022-10-04T05:28:21;96261.59;;;8.89;77.43
9839;BME280;4958;48.150;11.506;2022-10-04T05:30:59;96261.09;;;8.86;77.36
9839;BME280;4958;48.150;11.506;2022-10-04T05:33:36;96257.88;;;8.84;77.91
9839;BME280;4958;48.150;11.506;2022-10-04T05:36:34;96259.09;;;8.97;76.99
9839;BME280;4958;48.150;11.506;2022-10-04T05:39:06;96259.84;;;8.90;77.02
9839;BME280;4958;48.150;11.506;2022-10-04T05:41:38;96249.63;;;8.98;77.01
9839;BME280;4958;48.150;11.506;2022-10-04T05:44:22;96239.06;;;9.01;77.45
9839;BME280;4958;48.150;11.506;2022-10-04T05:46:52;96237.97;;;9.04;77.63
9839;BME280;4958;48.150;11.506;2022-10-04T05:49:21;96238.34;;;9.17;78.39
9839;BME280;4958;48.150;11.506;2022-10-04T05:51:52;96246.09;;;9.25;78.84
9839;BME280;4958;48.150;11.506;2022-10-04T05:54:22;96245.19;;;9.34;79.19
9839;BME280;4958;48.150;11.506;2022-10-04T05:57:01;96242.69;;;9.42;79.35
9839;BME280;4958;48.150;11.506;2022-10-04T05:59:46;96254.44;;;9.53;79.13
9839;BME280;4958;48.150;11.506;2022-10-04T06:02:26;96243.09;;;9.63;78.01
9839;BME280;4958;48.150;11.506;2022-10-04T06:05:07;96253.72;;;9.68;79.41
9839;BME280;4958;48.150;11.506;2022-10-04T06:07:39;96251.50;;;9.74;79.53
9839;BME280;4958;48.150;11.506;2022-10-04T06:13:24;96270.06;;;10.01;79.57
9839;BME280;4958;48.150;11.506;2022-10-04T06:16:14;96260.00;;;10.16;79.56
9839;BME280;4958;48.150;11.506;2022-10-04T06:19:18;96242.66;;;10.26;79.96
9839;BME280;4958;48.150;11.506;2022-10-04T06:22:11;96262.03;;;10.38;80.43
9839;BME280;4958;48.150;11.506;2022-10-04T06:24:41;96270.34;;;10.41;80.63
9839;BME280;4958;48.150;11.506;2022-10-04T06:27:13;96258.31;;;10.49;81.20
9839;BME280;4958;48.150;11.506;2022-10-04T06:29:45;96257.19;;;10.60;80.39
9839;BME280;4958;48.150;11.506;2022-10-04T06:32:40;96268.31;;;10.68;80.39
9839;BME280;4958;48.150;11.506;2022-10-04T06:35:20;96270.91;;;10.77;80.10
9839;BME280;4958;48.150;11.506;2022-10-04T06:38:22;96268.47;;;10.83;80.08
9839;BME280;4958;48.150;11.506;2022-10-04T06:41:08;96264.31;;;10.90;80.22
9839;BME280;4958;48.150;11.506;2022-10-04T06:44:11;96261.56;;;10.84;80.83
9839;BME280;4958;48.150;11.506;2022-10-04T06:46:45;96264.13;;;10.92;80.21
9839;BME280;4958;48.150;11.506;2022-10-04T06:49:29;96261.53;;;11.00;79.94
9839;BME280;4958;48.150;11.506;2022-10-04T06:52:27;96254.94;;;11.05;80.46
9839;BME280;4958;48.150;11.506;2022-10-04T06:58:23;96271.84;;;11.08;80.36
9839;BME280;4958;48.150;11.506;2022-10-04T07:01:01;96255.75;;;11.06;80.93
9839;BME280;4958;48.150;11.506;2022-10-04T07:03:33;96252.38;;;11.14;80.68
9839;BME280;4958;48.150;11.506;2022-10-04T07:06:03;96247.66;;;11.25;80.47
9839;BME280;4958;48.150;11.506;2022-10-04T07:08:38;96241.38;;;11.28;80.36
9839;BME280;4958;48.150;11.506;2022-10-04T07:11:12;96244.75;;;11.28;81.25
9839;BME280;4958;48.150;11.506;2022-10-04T07:13:48;96252.00;;;11.33;80.69
9839;BME280;4958;48.150;11.506;2022-10-04T07:16:33;96247.94;;;11.38;80.84
9839;BME280;4958;48.150;11.506;2022-10-04T07:19:23;96248.59;;;11.49;79.99
9839;BME280;4958;48.150;11.506;2022-10-04T07:21:56;96253.53;;;11.66;80.02
9839;BME280;4958;48.150;11.506;2022-10-04T07:24:36;96267.44;;;12.04;79.03
9839;BME280;4958;48.150;11.506;2022-10-04T07:27:07;96274.91;;;12.30;77.64
9839;BME280;4958;48.150;11.506;2022-10-04T07:29:37;96272.56;;;12.43;78.01
9839;BME280;4958;48.150;11.506;2022-10-04T07:32:07;96273.00;;;12.47;77.25
9839;BME280;4958;48.150;11.506;2022-10-04T07:34:42;96282.59;;;12.38;77.29
9839;BME280;4958;48.150;11.506;2022-10-04T07:37:12;96274.72;;;12.55;76.67
9839;BME280;4958;48.150;11.506;2022-10-04T07:39:48;96279.31;;;12.90;76.36
9839;BME280;4958;48.150;11.506;2022-10-04T07:42:22;96274.09;;;13.21;74.54
9839;BME280;4958;48.150;11.506;2022-10-04T07:45:04;96275.72;;;13.37;73.70
9839;BME280;4958;48.150;11.506;2022-10-04T07:47:33;96269.22;;;13.56;73.24
9839;BME280;4958;48.150;11.506;2022-10-04T07:50:14;96269.75;;;13.80;71.96
9839;BME280;4958;48.150;11.506;2022-10-04T07:52:49;96278.13;;;13.97;71.90
9839;BME280;4958;48.150;11.506;2022-10-04T07:55:25;96288.88;;;14.30;70.34
9839;BME280;4958;48.150;11.506;2022-10-04T08:00:47;96297.59;;;14.59;68.47
9839;BME280;4958;48.150;11.506;2022-10-04T08:03:51;96291.03;;;14.41;67.73
9839;BME280;4958;48.150;11.506;2022-10-04T08:06:30;96296.81;;;14.43;68.69
9839;BME280;4958;48.150;11.506;2022-10-04T08:09:21;96288.88;;;14.45;67.94
9839;BME280;4958;48.150;11.506;2022-10-04T08:11:58;96296.13;;;14.71;68.10
9839;BME280;4958;48.150;11.506;2022-10-04T08:14:38;96294.78;;;14.75;68.19
9839;BME280;4958;48.150;11.506;2022-10-04T08:17:23;96287.28;;;14.86;67.57
9839;BME280;4958;48.150;11.506;2022-10-04T08:19:59;96289.22;;;14.99;65.31
9839;BME280;4958;48.150;11.506;2022-10-04T08:22:42;96285.19;;;15.18;66.10
9839;BME280;4958;48.150;11.506;2022-10-04T08:25:17;96286.97;;;15.45;64.87
9839;BME280;4958;48.150;11.506;2022-10-04T08:27:57;96288.28;;;15.56;62.15
9839;BME280;4958;48.150;11.506;2022-10-04T08:31:07;96288.91;;;15.65;64.20
9839;BME280;4958;48.150;11.506;2022-10-04T08:33:58;96290.75;;;15.43;63.51
9839;BME280;4958;48.150;11.506;2022-10-04T08:36:43;96291.78;;;15.20;64.25
9839;BME280;4958;48.150;11.506;2022-10-04T08:39:24;96294.16;;;15.15;64.13
9839;BME280;4958;48.150;11.506;2022-10-04T08:42:24;96290.47;;;15.31;64.75
9839;BME280;4958;48.150;11.506;2022-10-04T08:45:35;96281.44;;;15.27;64.18
9839;BME280;4958;48.150;11.506;2022-10-04T08:55:06;96269.41;;;15.47;63.08
9839;BME280;4958;48.150;11.506;2022-10-04T08:57:51;96280.84;;;15.53;62.82
9839;BME280;4958;48.150;11.506;2022-10-04T09:00:25;96279.50;;;15.57;63.68
9839;BME280;4958;48.150;11.506;2022-10-04T09:03:32;96269.34;;;15.62;62.32
9839;BME280;4958;48.150;11.506;2022-10-04T09:06:40;96265.72;;;15.57;62.27
9839;BME280;4958;48.150;11.506;2022-10-04T09:12:34;96276.97;;;15.42;63.13
9839;BME280;4958;48.150;11.506;2022-10-04T09:15:34;96269.38;;;15.41;63.57
9839;BME280;4958;48.150;11.506;2022-10-04T09:18:21;96279.97;;;15.39;63.24
9839;BME280;4958;48.150;11.506;2022-10-04T09:20:54;96279.59;;;15.21;64.93
9839;BME280;4958;48.150;11.506;2022-10-04T09:23:53;96271.63;;;15.23;63.97
9839;BME280;4958;48.150;11.506;2022-10-04T09:26:30;96281.22;;;15.22;65.21
9839;BME280;4958;48.150;11.506;2022-10-04T09:29:11;96286.47;;;15.07;64.73
9839;BME280;4958;48.150;11.506;2022-10-04T09:32:05;96278.41;;;14.96;65.55
9839;BME280;4958;48.150;11.506;2022-10-04T09:34:45;96269.41;;;14.92;66.21
9839;BME280;4958;48.150;11.506;2022-10-04T09:37:35;96261.19;;;14.88;66.05
9839;BME280;4958;48.150;11.506;2022-10-04T09:43:40;96268.28;;;15.01;66.67
9839;BME280;4958;48.150;11.506;2022-10-04T09:46:22;96268.69;;;15.04;66.42
9839;BME280;4958;48.150;11.506;2022-10-04T09:49:06;96270.56;;;15.10;66.22
9839;BME280;4958;48.150;11.506;2022-10-04T09:51:58;96261.78;;;15.11;65.69
9839;BME280;4958;48.150;11.506;2022-10-04T09:54:49;96269.63;;;15.18;65.89
9839;BME280;4958;48.150;11.506;2022-10-04T09:57:28;96274.03;;;15.24;66.56
9839;BME280;4958;48.150;11.506;2022-10-04T10:00:12;96273.09;;;15.32;66.35
9839;BME280;4958;48.150;11.506;2022-10-04T10:03:00;96279.34;;;15.37;64.70
9839;BME280;4958;48.150;11.506;2022-10-04T10:05:47;96276.50;;;15.60;64.80
9839;BME280;4958;48.150;11.506;2022-10-04T10:08:23;96272.72;;;15.63;64.91
9839;BME280;4958;48.150;11.506;2022-10-04T10:11:00;96260.69;;;15.55;64.30
9839;BME280;4958;48.150;11.506;2022-10-04T10:16:51;96256.19;;;15.42;64.63
9839;BME280;4958;48.150;11.506;2022-10-04T10:19:42;96261.38;;;15.36;63.81
9839;BME280;4958;48.150;11.506;2022-10-04T10:22:26;96264.44;;;15.18;63.98
9839;BME280;4958;48.150;11.506;2022-10-04T10:25:11;96270.97;;;15.14;65.22
9839;BME280;4958;48.150;11.506;2022-10-04T10:27:50;96271.78;;;15.14;64.47
9839;BME280;4958;48.150;11.506;2022-10-04T10:30:23;96272.44;;;15.23;64.73
9839;BME280;4958;48.150;11.506;2022-10-04T10:33:06;96278.94;;;15.40;64.93
9839;BME280;4958;48.150;11.506;2022-10-04T10:35:46;96287.09;;;15.59;64.37
9839;BME280;4958;48.150;11.506;2022-10-04T10:38:29;96280.84;;;15.53;64.31
9839;BME280;4958;48.150;11.506;2022-10-04T10:41:19;96287.22;;;15.50;63.87
9839;BME280;4958;48.150;11.506;2022-10-04T10:47:11;96282.03;;;15.50;64.39
9839;BME280;4958;48.150;11.506;2022-10-04T10:49:52;96292.59;;;15.49;64.20
9839;BME280;4958;48.150;11.506;2022-10-04T10:55:59;96284.84;;;15.83;63.42
9839;BME280;4958;48.150;11.506;2022-10-04T11:02:32;96286.91;;;16.01;63.93
9839;BME280;4958;48.150;11.506;2022-10-04T11:05:24;96279.41;;;16.19;63.01
9839;BME280;4958;48.150;11.506;2022-10-04T11:08:00;96275.03;;;16.27;63.38
9839;BME280;4958;48.150;11.506;2022-10-04T11:17:00;96270.72;;;15.99;61.87
9839;BME280;4958;48.150;11.506;2022-10-04T11:20:17;96259.16;;;16.02;63.11
9839;BME280;4958;48.150;11.506;2022-10-04T11:26:26;96261.31;;;15.98;62.76
9839;BME280;4958;48.150;11.506;2022-10-04T11:29:09;96267.75;;;16.02;62.54
9839;BME280;4958;48.150;11.506;2022-10-04T11:31:56;96259.94;;;15.96;62.90
9839;BME280;4958;48.150;11.506;2022-10-04T11:34:57;96257.16;;;16.04;62.47
9839;BME280;4958;48.150;11.506;2022-10-04T11:37:39;96254.22;;;16.13;62.16
9839;BME280;4958;48.150;11.506;2022-10-04T11:40:23;96256.88;;;16.33;61.65
9839;BME280;4958;48.150;11.506;2022-10-04T11:43:14;96248.47;;;16.38;61.67
9839;BME280;4958;48.150;11.506;2022-10-04T11:46:00;96246.13;;;16.56;61.95
9839;BME280;4958;48.150;11.506;2022-10-04T11:48:39;96245.19;;;16.77;61.77
9839;BME280;4958;48.150;11.506;2022-10-04T11:54:54;96240.38;;;16.93;60.01
9839;BME280;4958;48.150;11.506;2022-10-04T11:57:29;96247.59;;;16.72;59.96
9839;BME280;4958;48.150;11.506;2022-10-04T12:00:03;96241.31;;;16.59;60.17
9839;BME280;4958;48.150;11.506;2022-10-04T12:02:58;96237.53;;;16.49;60.46
9839;BME280;4958;48.150;11.506;2022-10-04T12:05:44;96240.50;;;16.46;59.69
9839;BME280;4958;48.150;11.506;2022-10-04T12:08:37;96237.47;;;16.36;60.13
9839;BME280;4958;48.150;11.506;2022-10-04T12:11:27;96238.50;;;16.48;60.81
9839;BME280;4958;48.150;11.506;2022-10-04T12:14:23;96231.72;;;16.60;60.38
9839;BME280;4958;48.150;11.506;2022-10-04T12:17:26;96228.16;;;16.74;62.43
9839;BME280;4958;48.150;11.506;2022-10-04T12:20:16;96223.59;;;16.83;60.35
9839;BME280;4958;48.150;11.506;2022-10-04T12:23:02;96216.97;;;17.00;59.72
9839;BME280;4958;48.150;11.506;2022-10-04T12:26:13;96208.16;;;17.21;59.92
9839;BME280;4958;48.150;11.506;2022-10-04T12:29:09;96212.50;;;17.53;59.19
9839;BME280;4958;48.150;11.506;2022-10-04T12:31:44;96203.66;;;17.74;58.92
9839;BME280;4958;48.150;11.506;2022-10-04T12:34:20;96206.97;;;18.01;58.76
9839;BME280;4958;48.150;11.506;2022-10-04T12:37:04;96205.44;;;18.25;57.16
9839;BME280;4958;48.150;11.506;2022-10-04T12:39:53;96202.63;;;18.26;55.84
9839;BME280;4958;48.150;11.506;2022-10-04T12:42:31;96205.78;;;18.35;57.63
9839;BME280;4958;48.150;11.506;2022-10-04T12:45:22;96205.19;;;18.33;55.74
9839;BME280;4958;48.150;11.506;2022-10-04T12:48:03;96215.03;;;18.31;55.31
9839;BME280;4958;48.150;11.506;2022-10-04T12:50:45;96203.25;;;18.22;55.23
9839;BME280;4958;48.150;11.506;2022-10-04T12:53:24;96204.69;;;18.11;55.07
9839;BME280;4958;48.150;11.506;2022-10-04T12:56:05;96199.44;;;18.24;55.30
9839;BME280;4958;48.150;11.506;2022-10-04T12:58:42;96206.25;;;18.25;55.40
9839;BME280;4958;48.150;11.506;2022-10-04T13:01:17;96198.78;;;18.29;54.99
9839;BME280;4958;48.150;11.506;2022-10-04T13:04:04;96184.91;;;18.35;55.48
9839;BME280;4958;48.150;11.506;2022-10-04T13:06:41;96189.94;;;18.30;54.57
9839;BME280;4958;48.150;11.506;2022-10-04T13:09:22;96178.91;;;18.35;54.05
9839;BME280;4958;48.150;11.506;2022-10-04T13:12:10;96185.31;;;18.39;53.02
9839;BME280;4958;48.150;11.506;2022-10-04T13:14:55;96185.34;;;18.32;52.73
9839;BME280;4958;48.150;11.506;2022-10-04T13:17:37;96176.72;;;18.32;53.69
9839;BME280;4958;48.150;11.506;2022-10-04T13:20:19;96178.69;;;18.36;52.79
9839;BME280;4958;48.150;11.506;2022-10-04T13:22:54;96183.88;;;18.43;54.09
9839;BME280;4958;48.150;11.506;2022-10-04T13:25:35;96182.31;;;18.35;54.03
9839;BME280;4958;48.150;11.506;2022-10-04T13:28:16;96179.50;;;18.37;54.19
9839;BME280;4958;48.150;11.506;2022-10-04T13:30:49;96183.13;;;18.36;53.66
9839;BME280;4958;48.150;11.506;2022-10-04T13:33:24;96189.34;;;18.35;53.87
9839;BME280;4958;48.150;11.506;2022-10-04T13:35:59;96182.50;;;18.40;54.21
9839;BME280;4958;48.150;11.506;2022-10-04T13:38:52;96181.31;;;18.36;54.32
9839;BME280;4958;48.150;11.506;2022-10-04T13:41:35;96185.84;;;18.47;53.94
9839;BME280;4958;48.150;11.506;2022-10-04T13:44:29;96185.00;;;18.53;53.84
9839;BME280;4958;48.150;11.506;2022-10-04T13:47:25;96180.41;;;18.49;54.30
9839;BME280;4958;48.150;11.506;2022-10-04T13:50:14;96186.69;;;18.73;54.78
9839;BME280;4958;48.150;11.506;2022-10-04T13:52:52;96192.59;;;18.86;54.27
9839;BME280;4958;48.150;11.506;2022-10-04T13:55:46;96192.03;;;18.84;53.31
9839;BME280;4958;48.150;11.506;2022-10-04T13:58:43;96192.78;;;18.91;52.49
9839;BME280;4958;48.150;11.506;2022-10-04T14:04:48;96195.22;;;18.86;54.04
9839;BME280;4958;48.150;11.506;2022-10-04T14:07:49;96200.94;;;19.02;54.30
9839;BME280;4958;48.150;11.506;2022-10-04T14:10:36;96203.16;;;18.98;52.82
9839;BME280;4958;48.150;11.506;2022-10-04T14:13:30;96203.38;;;18.96;52.39
9839;BME280;4958;48.150;11.506;2022-10-04T14:22:28;96193.09;;;19.02;52.76
9839;BME280;4958;48.150;11.506;2022-10-04T14:25:38;96200.56;;;18.98;52.93
9839;BME280;4958;48.150;11.506;2022-10-04T14:31:22;96197.47;;;18.83;53.03
9839;BME280;4958;48.150;11.506;2022-10-04T14:34:18;96189.44;;;18.84;52.18
9839;BME280;4958;48.150;11.506;2022-10-04T14:37:07;96179.03;;;19.03;52.57
9839;BME280;4958;48.150;11.506;2022-10-04T14:39:58;96190.00;;;19.11;52.61
9839;BME280;4958;48.150;11.506;2022-10-04T14:42:46;96192.59;;;19.11;51.79
9839;BME280;4958;48.150;11.506;2022-10-04T14:45:20;96188.47;;;19.04;52.11
9839;BME280;4958;48.150;11.506;2022-10-04T14:48:07;96186.28;;;19.01;52.06
9839;BME280;4958;48.150;11.506;2022-10-04T14:50:50;96193.06;;;18.83;51.59
9839;BME280;4958;48.150;11.506;2022-10-04T14:53:30;96190.91;;;18.74;51.80
9839;BME280;4958;48.150;11.506;2022-10-04T14:56:38;96188.50;;;18.72;52.03
9839;BME280;4958;48.150;11.506;2022-10-04T14:59:21;96195.75;;;18.70;52.04
9839;BME280;4958;48.150;11.506;2022-10-04T15:02:12;96192.66;;;18.80;52.23
9839;BME280;4958;48.150;11.506;2022-10-04T15:05:02;96197.47;;;18.83;52.71
9839;BME280;4958;48.150;11.506;2022-10-04T15:07:34;96191.06;;;18.79;52.20
9839;BME280;4958;48.150;11.506;2022-10-04T15:10:09;96193.25;;;18.82;51.56
9839;BME280;4958;48.150;11.506;2022-10-04T15:12:44;96192.84;;;18.85;51.87
9839;BME280;4958;48.150;11.506;2022-10-04T15:15:39;96195.75;;;18.95;51.87
9839;BME280;4958;48.150;11.506;2022-10-04T15:18:23;96188.31;;;18.98;50.91
9839;BME280;4958;48.150;11.506;2022-10-04T15:20:55;96194.91;;;19.01;51.37
9839;BME280;4958;48.150;11.506;2022-10-04T15:23:33;96200.38;;;18.93;51.38
9839;BME280;4958;48.150;11.506;2022-10-04T15:26:11;96199.50;;;18.81;51.44